Avalon Express — WDD7919 — position and weather

sailwx.info

Track history (hours):
 
Tides and Currents Weather Stations Pressure Air Temp Water Temp Dewpoint Dewpoint Depression Visibility Wind Speed Wind Dir Waves Ship Positions

Avalon Express

Owner: RGWT INC, San Pedro, CA. More information available from US FCC via Universal Licensing System and Coast Guard Vessel Documentation Center.

Last reported at 2015-Aug-30 03:34 UTC. Time now 2015-Aug-30 09:59 UTC.
Position N 33°28' W 117°42'.

Type: High speed craft. MMSI: 367192940.

Date/timePositionNaut miles runAvg speedWind from/ knotsBaromVisibWave heightAir tempDewpointWater temp
2015-Aug-30 03:34N 33°28' W 117°42'2019.4
2015-Aug-30 02:33N 33°23' W 118°04'1312.9
2015-Aug-30 01:33N 33°21' W 118°19'2221.6
2015-Aug-30 00:34N 33°25' W 117°54'1110.7
2015-Aug-29 23:33N 33°28' W 117°42'0 0.0
2015-Aug-29 22:33N 33°28' W 117°42'1918.9
2015-Aug-29 21:32N 33°23' W 118°04'1312.3
2015-Aug-29 20:29N 33°21' W 118°19'1920.1
2015-Aug-29 19:33N 33°24' W 117°58'1413.8
2015-Aug-29 18:33N 33°28' W 117°42'1413.6
2015-Aug-29 17:34N 33°25' W 117°57'1918.3
2015-Aug-29 16:32N 33°21' W 118°19'1717.8
2015-Aug-29 15:33N 33°24' W 117°59'1514.7
2015-Aug-29 14:33N 33°28' W 117°42'0 0.1
2015-Aug-29 13:33N 33°28' W 117°41'0 0.0
2015-Aug-29 03:33N 33°28' W 117°42'1919.5
2015-Aug-29 02:34N 33°23' W 118°04'1312.8
2015-Aug-29 01:33N 33°21' W 118°19'2121.3
2015-Aug-29 00:33N 33°25' W 117°54'1111.1
2015-Aug-28 23:33N 33°28' W 117°42'0 0.0
2015-Aug-28 22:33N 33°28' W 117°42'1918.6
2015-Aug-28 21:33N 33°24' W 118°03'1413.6
2015-Aug-28 20:33N 33°21' W 118°19'2020.4
2015-Aug-28 19:34N 33°25' W 117°56'1212.0
2015-Aug-28 18:33N 33°28' W 117°42'1312.8
2015-Aug-28 17:33N 33°25' W 117°56'2019.6
2015-Aug-28 16:34N 33°21' W 118°19'1817.9
2015-Aug-28 15:34N 33°24' W 117°58'1414.4
2015-Aug-28 14:33N 33°28' W 117°42'8 8.3
2015-Aug-28 13:33N 33°31' W 117°51'25 1.4
2015-Aug-27 20:03N 33°44' W 118°17'816.5
2015-Aug-27 19:34N 33°37' W 118°21'1212.5
2015-Aug-27 18:33N 33°28' W 118°31'1414.4
2015-Aug-27 17:34N 33°38' W 118°19'7 7.2
2015-Aug-27 16:33N 33°45' W 118°16'0 0.0
2015-Aug-27 15:34N 33°45' W 118°16'0 0.0
2015-Aug-27 14:34N 33°45' W 118°16'0 0.0
2015-Aug-27 13:34N 33°45' W 118°16'0 0.0
2015-Aug-27 12:33N 33°45' W 118°16'0 0.0
2015-Aug-27 02:33N 33°45' W 118°16'0 0.0
2015-Aug-27 01:32N 33°45' W 118°16'1718.0
2015-Aug-27 00:34N 33°27' W 118°18'8 4.2
2015-Aug-26 22:34N 33°35' W 118°21'1010.1
2015-Aug-26 21:33N 33°45' W 118°16'2 1.9
2015-Aug-26 20:34N 33°43' W 118°16'2322.6
2015-Aug-26 19:33N 33°21' W 118°19'1111.0
2015-Aug-26 18:33N 33°32' W 118°18'1313.4
2015-Aug-26 17:33N 33°45' W 118°16'0 0.1
2015-Aug-26 16:33N 33°45' W 118°16'0 0.0
2015-Aug-26 15:33N 33°45' W 118°16'0 0.0
2015-Aug-26 14:34N 33°45' W 118°16'  
2015-Aug-23 23:10N 33°44' W 118°17'1118.4
2015-Aug-23 22:33N 33°33' W 118°16'1312.9
2015-Aug-23 21:34N 33°21' W 118°19'1817.2
2015-Aug-23 20:30N 33°39' W 118°15'6 6.7
2015-Aug-23 19:33N 33°45' W 118°16'2320.1
2015-Aug-23 18:23N 33°22' W 118°19'4 5.2
2015-Aug-23 17:32N 33°26' W 118°19'1919.3
2015-Aug-23 16:34N 33°45' W 118°17'0 0.3
2015-Aug-23 15:33N 33°45' W 118°16'0 0.0
2015-Aug-23 14:34N 33°45' W 118°16'0 0.0
2015-Aug-23 13:34N 33°45' W 118°16'0 0.0
2015-Aug-22 23:33N 33°45' W 118°16'2411.8
2015-Aug-22 21:33N 33°21' W 118°19'2217.5
2015-Aug-22 20:19N 33°43' W 118°16'2 2.8
2015-Aug-22 19:33N 33°45' W 118°16'2416.9
2015-Aug-22 18:07N 33°21' W 118°19'4 6.8
2015-Aug-22 17:33N 33°24' W 118°19'2020.0
2015-Aug-22 16:32N 33°45' W 118°17'0 0.2
2015-Aug-22 15:23N 33°45' W 118°16'0 0.0
2015-Aug-22 14:32N 33°45' W 118°16'0 0.0
2015-Aug-22 13:33N 33°45' W 118°16'0 0.0
2015-Aug-22 12:30N 33°45' W 118°16'0 0.0
2015-Aug-21 21:32N 33°45' W 118°16'0 0.1
2015-Aug-21 20:32N 33°45' W 118°16'24 9.7
2015-Aug-21 18:03N 33°21' W 118°19'2416.1
2015-Aug-21 16:33N 33°45' W 118°16'0 0.0
2015-Aug-21 14:26N 33°45' W 118°16'0 0.0
2015-Aug-21 13:31N 33°45' W 118°16'0 0.0
2015-Aug-21 12:34N 33°45' W 118°16'0 0.0
2015-Aug-21 11:27N 33°45' W 118°16'0 0.0
2015-Aug-21 00:31N 33°45' W 118°16'22 3.2
2015-Aug-20 17:33N 33°23' W 118°19'2221.5
2015-Aug-20 16:33N 33°44' W 118°17'0 0.5
2015-Aug-20 15:33N 33°45' W 118°16'0 0.0
2015-Aug-20 14:33N 33°45' W 118°16'0 0.0
2015-Aug-20 13:33N 33°45' W 118°16'  
Track history (hours):
 
Tides and Currents Weather Stations Pressure Air Temp Water Temp Dewpoint Dewpoint Depression Visibility Wind Speed Wind Dir Waves Ship Positions

Avalon Express

Owner: RGWT INC, San Pedro, CA. More information available from US FCC via Universal Licensing System and Coast Guard Vessel Documentation Center.

Last reported at 2015-Aug-30 03:34 UTC. Time now 2015-Aug-30 09:59 UTC.
Position N 33°28' W 117°42'.

Type: High speed craft. MMSI: 367192940.

Date/timePositionNaut miles runAvg speedWind from/ knotsBaromVisibWave heightAir tempDewpointWater temp
2015-Aug-30 03:34N 33°28' W 117°42'2019.4
2015-Aug-30 02:33N 33°23' W 118°04'1312.9
2015-Aug-30 01:33N 33°21' W 118°19'2221.6
2015-Aug-30 00:34N 33°25' W 117°54'1110.7
2015-Aug-29 23:33N 33°28' W 117°42'0 0.0
2015-Aug-29 22:33N 33°28' W 117°42'1918.9
2015-Aug-29 21:32N 33°23' W 118°04'1312.3
2015-Aug-29 20:29N 33°21' W 118°19'1920.1
2015-Aug-29 19:33N 33°24' W 117°58'1413.8
2015-Aug-29 18:33N 33°28' W 117°42'1413.6
2015-Aug-29 17:34N 33°25' W 117°57'1918.3
2015-Aug-29 16:32N 33°21' W 118°19'1717.8
2015-Aug-29 15:33N 33°24' W 117°59'1514.7
2015-Aug-29 14:33N 33°28' W 117°42'0 0.1
2015-Aug-29 13:33N 33°28' W 117°41'0 0.0
2015-Aug-29 03:33N 33°28' W 117°42'1919.5
2015-Aug-29 02:34N 33°23' W 118°04'1312.8
2015-Aug-29 01:33N 33°21' W 118°19'2121.3
2015-Aug-29 00:33N 33°25' W 117°54'1111.1
2015-Aug-28 23:33N 33°28' W 117°42'0 0.0
2015-Aug-28 22:33N 33°28' W 117°42'1918.6
2015-Aug-28 21:33N 33°24' W 118°03'1413.6
2015-Aug-28 20:33N 33°21' W 118°19'2020.4
2015-Aug-28 19:34N 33°25' W 117°56'1212.0
2015-Aug-28 18:33N 33°28' W 117°42'1312.8
2015-Aug-28 17:33N 33°25' W 117°56'2019.6
2015-Aug-28 16:34N 33°21' W 118°19'1817.9
2015-Aug-28 15:34N 33°24' W 117°58'1414.4
2015-Aug-28 14:33N 33°28' W 117°42'8 8.3
2015-Aug-28 13:33N 33°31' W 117°51'25 1.4
2015-Aug-27 20:03N 33°44' W 118°17'816.5
2015-Aug-27 19:34N 33°37' W 118°21'1212.5
2015-Aug-27 18:33N 33°28' W 118°31'1414.4
2015-Aug-27 17:34N 33°38' W 118°19'7 7.2
2015-Aug-27 16:33N 33°45' W 118°16'0 0.0
2015-Aug-27 15:34N 33°45' W 118°16'0 0.0
2015-Aug-27 14:34N 33°45' W 118°16'0 0.0
2015-Aug-27 13:34N 33°45' W 118°16'0 0.0
2015-Aug-27 12:33N 33°45' W 118°16'0 0.0
2015-Aug-27 02:33N 33°45' W 118°16'0 0.0
2015-Aug-27 01:32N 33°45' W 118°16'1718.0
2015-Aug-27 00:34N 33°27' W 118°18'8 4.2
2015-Aug-26 22:34N 33°35' W 118°21'1010.1
2015-Aug-26 21:33N 33°45' W 118°16'2 1.9
2015-Aug-26 20:34N 33°43' W 118°16'2322.6
2015-Aug-26 19:33N 33°21' W 118°19'1111.0
2015-Aug-26 18:33N 33°32' W 118°18'1313.4
2015-Aug-26 17:33N 33°45' W 118°16'0 0.1
2015-Aug-26 16:33N 33°45' W 118°16'0 0.0
2015-Aug-26 15:33N 33°45' W 118°16'0 0.0
2015-Aug-26 14:34N 33°45' W 118°16'  
2015-Aug-23 23:10N 33°44' W 118°17'1118.4
2015-Aug-23 22:33N 33°33' W 118°16'1312.9
2015-Aug-23 21:34N 33°21' W 118°19'1817.2
2015-Aug-23 20:30N 33°39' W 118°15'6 6.7
2015-Aug-23 19:33N 33°45' W 118°16'2320.1
2015-Aug-23 18:23N 33°22' W 118°19'4 5.2
2015-Aug-23 17:32N 33°26' W 118°19'1919.3
2015-Aug-23 16:34N 33°45' W 118°17'0 0.3
2015-Aug-23 15:33N 33°45' W 118°16'0 0.0
2015-Aug-23 14:34N 33°45' W 118°16'0 0.0
2015-Aug-23 13:34N 33°45' W 118°16'0 0.0
2015-Aug-22 23:33N 33°45' W 118°16'2411.8
2015-Aug-22 21:33N 33°21' W 118°19'2217.5
2015-Aug-22 20:19N 33°43' W 118°16'2 2.8
2015-Aug-22 19:33N 33°45' W 118°16'2416.9
2015-Aug-22 18:07N 33°21' W 118°19'4 6.8
2015-Aug-22 17:33N 33°24' W 118°19'2020.0
2015-Aug-22 16:32N 33°45' W 118°17'0 0.2
2015-Aug-22 15:23N 33°45' W 118°16'0 0.0
2015-Aug-22 14:32N 33°45' W 118°16'0 0.0
2015-Aug-22 13:33N 33°45' W 118°16'0 0.0
2015-Aug-22 12:30N 33°45' W 118°16'0 0.0
2015-Aug-21 21:32N 33°45' W 118°16'0 0.1
2015-Aug-21 20:32N 33°45' W 118°16'24 9.7
2015-Aug-21 18:03N 33°21' W 118°19'2416.1
2015-Aug-21 16:33N 33°45' W 118°16'0 0.0
2015-Aug-21 14:26N 33°45' W 118°16'0 0.0
2015-Aug-21 13:31N 33°45' W 118°16'0 0.0
2015-Aug-21 12:34N 33°45' W 118°16'0 0.0
2015-Aug-21 11:27N 33°45' W 118°16'0 0.0
2015-Aug-21 00:31N 33°45' W 118°16'22 3.2
2015-Aug-20 17:33N 33°23' W 118°19'2221.5
2015-Aug-20 16:33N 33°44' W 118°17'0 0.5
2015-Aug-20 15:33N 33°45' W 118°16'0 0.0
2015-Aug-20 14:33N 33°45' W 118°16'0 0.0
2015-Aug-20 13:33N 33°45' W 118°16'  

Dump ship's entire track history